sensor_id;sensor_type;location;lat;lon;timestamp;P1;durP1;ratioP1;P2;durP2;ratioP2
76786;SDS011;65739;51.482;5.702;2022-12-04T00:00:04;51.95;;;21.77;;
76786;SDS011;65739;51.482;5.702;2022-12-04T00:02:34;53.10;;;21.92;;
76786;SDS011;65739;51.482;5.702;2022-12-04T00:05:03;59.45;;;23.45;;
76786;SDS011;65739;51.482;5.702;2022-12-04T00:07:30;56.90;;;22.48;;
76786;SDS011;65739;51.482;5.702;2022-12-04T00:09:57;58.00;;;23.20;;
76786;SDS011;65739;51.482;5.702;2022-12-04T00:12:22;53.45;;;21.85;;
76786;SDS011;65739;51.482;5.702;2022-12-04T00:14:48;58.88;;;23.27;;
76786;SDS011;65739;51.482;5.702;2022-12-04T00:17:14;59.05;;;21.95;;
76786;SDS011;65739;51.482;5.702;2022-12-04T00:19:39;52.28;;;20.88;;
76786;SDS011;65739;51.482;5.702;2022-12-04T00:22:05;54.88;;;23.67;;
76786;SDS011;65739;51.482;5.702;2022-12-04T00:24:32;52.40;;;21.17;;
76786;SDS011;65739;51.482;5.702;2022-12-04T00:26:58;56.95;;;23.00;;
76786;SDS011;65739;51.482;5.702;2022-12-04T00:29:24;54.60;;;22.38;;
76786;SDS011;65739;51.482;5.702;2022-12-04T00:31:50;54.83;;;21.88;;
76786;SDS011;65739;51.482;5.702;2022-12-04T00:34:16;50.83;;;21.67;;
76786;SDS011;65739;51.482;5.702;2022-12-04T00:36:42;53.92;;;21.98;;
76786;SDS011;65739;51.482;5.702;2022-12-04T00:39:08;57.80;;;21.35;;
76786;SDS011;65739;51.482;5.702;2022-12-04T00:41:34;55.65;;;22.73;;
76786;SDS011;65739;51.482;5.702;2022-12-04T00:44:00;50.85;;;21.80;;
76786;SDS011;65739;51.482;5.702;2022-12-04T00:46:27;55.78;;;22.95;;
76786;SDS011;65739;51.482;5.702;2022-12-04T00:48:53;50.20;;;21.58;;
76786;SDS011;65739;51.482;5.702;2022-12-04T00:51:20;55.92;;;23.15;;
76786;SDS011;65739;51.482;5.702;2022-12-04T00:53:48;55.78;;;22.45;;
76786;SDS011;65739;51.482;5.702;2022-12-04T00:56:17;56.28;;;22.00;;
76786;SDS011;65739;51.482;5.702;2022-12-04T00:58:44;53.20;;;21.98;;
76786;SDS011;65739;51.482;5.702;2022-12-04T01:01:12;56.97;;;21.73;;
76786;SDS011;65739;51.482;5.702;2022-12-04T01:03:39;52.47;;;21.35;;
76786;SDS011;65739;51.482;5.702;2022-12-04T01:06:06;53.30;;;22.00;;
76786;SDS011;65739;51.482;5.702;2022-12-04T01:08:40;56.50;;;22.00;;
76786;SDS011;65739;51.482;5.702;2022-12-04T01:11:06;55.90;;;23.25;;
76786;SDS011;65739;51.482;5.702;2022-12-04T01:13:32;57.17;;;23.00;;
76786;SDS011;65739;51.482;5.702;2022-12-04T01:15:58;56.05;;;23.05;;
76786;SDS011;65739;51.482;5.702;2022-12-04T01:18:23;54.30;;;22.48;;
76786;SDS011;65739;51.482;5.702;2022-12-04T01:20:50;55.75;;;21.77;;
76786;SDS011;65739;51.482;5.702;2022-12-04T01:23:17;51.38;;;22.30;;
76786;SDS011;65739;51.482;5.702;2022-12-04T01:25:50;54.50;;;23.20;;
76786;SDS011;65739;51.482;5.702;2022-12-04T01:28:17;52.05;;;21.25;;
76786;SDS011;65739;51.482;5.702;2022-12-04T01:30:43;55.08;;;22.27;;
76786;SDS011;65739;51.482;5.702;2022-12-04T01:33:09;49.50;;;20.92;;
76786;SDS011;65739;51.482;5.702;2022-12-04T01:35:35;53.90;;;21.85;;
76786;SDS011;65739;51.482;5.702;2022-12-04T01:38:03;54.25;;;23.27;;
76786;SDS011;65739;51.482;5.702;2022-12-04T01:40:29;53.70;;;22.75;;
76786;SDS011;65739;51.482;5.702;2022-12-04T01:42:55;55.60;;;23.15;;
76786;SDS011;65739;51.482;5.702;2022-12-04T01:45:40;52.95;;;21.35;;
76786;SDS011;65739;51.482;5.702;2022-12-04T01:48:14;55.92;;;20.80;;
76786;SDS011;65739;51.482;5.702;2022-12-04T01:50:46;55.00;;;21.52;;
76786;SDS011;65739;51.482;5.702;2022-12-04T01:53:14;56.88;;;22.45;;
76786;SDS011;65739;51.482;5.702;2022-12-04T01:55:40;55.53;;;23.45;;
76786;SDS011;65739;51.482;5.702;2022-12-04T01:58:07;52.53;;;23.23;;
76786;SDS011;65739;51.482;5.702;2022-12-04T02:00:34;54.97;;;23.48;;
76786;SDS011;65739;51.482;5.702;2022-12-04T02:02:59;51.42;;;22.33;;
76786;SDS011;65739;51.482;5.702;2022-12-04T02:05:25;52.72;;;21.73;;
76786;SDS011;65739;51.482;5.702;2022-12-04T02:07:51;58.10;;;23.00;;
76786;SDS011;65739;51.482;5.702;2022-12-04T02:10:23;54.65;;;22.90;;
76786;SDS011;65739;51.482;5.702;2022-12-04T02:26:35;59.60;;;24.15;;
76786;SDS011;65739;51.482;5.702;2022-12-04T02:29:27;61.72;;;23.42;;
76786;SDS011;65739;51.482;5.702;2022-12-04T02:32:21;58.10;;;23.67;;
76786;SDS011;65739;51.482;5.702;2022-12-04T02:35:05;57.25;;;23.23;;
76786;SDS011;65739;51.482;5.702;2022-12-04T02:37:35;60.25;;;24.10;;
76786;SDS011;65739;51.482;5.702;2022-12-04T02:40:08;53.65;;;23.25;;
76786;SDS011;65739;51.482;5.702;2022-12-04T02:43:07;58.67;;;24.63;;
76786;SDS011;65739;51.482;5.702;2022-12-04T02:45:50;53.75;;;22.10;;
76786;SDS011;65739;51.482;5.702;2022-12-04T02:48:20;62.08;;;24.17;;
76786;SDS011;65739;51.482;5.702;2022-12-04T02:50:48;56.20;;;23.58;;
76786;SDS011;65739;51.482;5.702;2022-12-04T02:53:25;61.50;;;24.73;;
76786;SDS011;65739;51.482;5.702;2022-12-04T02:55:59;58.75;;;25.33;;
76786;SDS011;65739;51.482;5.702;2022-12-04T02:58:48;57.72;;;24.55;;
76786;SDS011;65739;51.482;5.702;2022-12-04T03:01:19;63.08;;;25.58;;
76786;SDS011;65739;51.482;5.702;2022-12-04T03:04:09;64.45;;;25.30;;
76786;SDS011;65739;51.482;5.702;2022-12-04T03:06:42;53.50;;;23.33;;
76786;SDS011;65739;51.482;5.702;2022-12-04T03:09:16;64.30;;;24.87;;
76786;SDS011;65739;51.482;5.702;2022-12-04T03:11:43;57.78;;;24.20;;
76786;SDS011;65739;51.482;5.702;2022-12-04T03:14:17;54.08;;;23.95;;
76786;SDS011;65739;51.482;5.702;2022-12-04T03:16:48;61.30;;;25.15;;
76786;SDS011;65739;51.482;5.702;2022-12-04T03:19:22;56.33;;;24.58;;
76786;SDS011;65739;51.482;5.702;2022-12-04T03:21:56;60.17;;;23.98;;
76786;SDS011;65739;51.482;5.702;2022-12-04T03:24:28;61.35;;;25.65;;
76786;SDS011;65739;51.482;5.702;2022-12-04T03:29:39;63.28;;;25.02;;
76786;SDS011;65739;51.482;5.702;2022-12-04T03:32:14;57.88;;;25.42;;
76786;SDS011;65739;51.482;5.702;2022-12-04T03:34:50;65.18;;;26.80;;
76786;SDS011;65739;51.482;5.702;2022-12-04T03:37:23;62.75;;;25.05;;
76786;SDS011;65739;51.482;5.702;2022-12-04T03:42:37;62.45;;;25.15;;
76786;SDS011;65739;51.482;5.702;2022-12-04T03:47:52;56.90;;;24.17;;
76786;SDS011;65739;51.482;5.702;2022-12-04T03:50:28;64.75;;;23.67;;
76786;SDS011;65739;51.482;5.702;2022-12-04T03:53:17;59.63;;;25.85;;
76786;SDS011;65739;51.482;5.702;2022-12-04T03:55:57;58.53;;;25.27;;
76786;SDS011;65739;51.482;5.702;2022-12-04T03:58:41;59.17;;;23.50;;
76786;SDS011;65739;51.482;5.702;2022-12-04T04:01:10;58.47;;;24.23;;
76786;SDS011;65739;51.482;5.702;2022-12-04T04:03:43;58.80;;;24.08;;
76786;SDS011;65739;51.482;5.702;2022-12-04T04:06:25;58.75;;;24.70;;
76786;SDS011;65739;51.482;5.702;2022-12-04T04:08:57;63.75;;;25.08;;
76786;SDS011;65739;51.482;5.702;2022-12-04T04:11:28;55.45;;;23.83;;
76786;SDS011;65739;51.482;5.702;2022-12-04T04:14:00;61.75;;;24.30;;
76786;SDS011;65739;51.482;5.702;2022-12-04T04:16:48;54.95;;;24.17;;
76786;SDS011;65739;51.482;5.702;2022-12-04T04:19:39;63.70;;;24.73;;
76786;SDS011;65739;51.482;5.702;2022-12-04T04:22:28;57.90;;;24.80;;
76786;SDS011;65739;51.482;5.702;2022-12-04T04:25:16;70.22;;;25.27;;
76786;SDS011;65739;51.482;5.702;2022-12-04T04:27:51;59.28;;;24.70;;
76786;SDS011;65739;51.482;5.702;2022-12-04T04:30:18;60.08;;;25.27;;
76786;SDS011;65739;51.482;5.702;2022-12-04T04:32:48;61.75;;;25.38;;
76786;SDS011;65739;51.482;5.702;2022-12-04T04:38:14;59.40;;;25.08;;
76786;SDS011;65739;51.482;5.702;2022-12-04T04:40:58;62.65;;;24.33;;
76786;SDS011;65739;51.482;5.702;2022-12-04T04:43:39;60.47;;;24.65;;
76786;SDS011;65739;51.482;5.702;2022-12-04T04:46:26;62.83;;;25.73;;
76786;SDS011;65739;51.482;5.702;2022-12-04T04:48:57;62.40;;;24.63;;
76786;SDS011;65739;51.482;5.702;2022-12-04T04:51:27;59.63;;;24.50;;
76786;SDS011;65739;51.482;5.702;2022-12-04T04:53:57;53.40;;;23.38;;
76786;SDS011;65739;51.482;5.702;2022-12-04T04:56:25;59.65;;;24.83;;
76786;SDS011;65739;51.482;5.702;2022-12-04T04:58:51;54.92;;;24.17;;
76786;SDS011;65739;51.482;5.702;2022-12-04T05:01:18;54.53;;;24.23;;
76786;SDS011;65739;51.482;5.702;2022-12-04T05:03:45;59.20;;;25.05;;
76786;SDS011;65739;51.482;5.702;2022-12-04T05:06:11;64.93;;;26.02;;
76786;SDS011;65739;51.482;5.702;2022-12-04T05:08:37;58.25;;;25.75;;
76786;SDS011;65739;51.482;5.702;2022-12-04T05:11:03;58.05;;;24.35;;
76786;SDS011;65739;51.482;5.702;2022-12-04T05:13:32;63.63;;;25.83;;
76786;SDS011;65739;51.482;5.702;2022-12-04T05:15:59;51.58;;;23.63;;
76786;SDS011;65739;51.482;5.702;2022-12-04T05:18:27;60.80;;;25.42;;
76786;SDS011;65739;51.482;5.702;2022-12-04T05:20:53;57.33;;;24.27;;
76786;SDS011;65739;51.482;5.702;2022-12-04T05:23:19;61.17;;;25.27;;
76786;SDS011;65739;51.482;5.702;2022-12-04T05:25:46;63.28;;;24.92;;
76786;SDS011;65739;51.482;5.702;2022-12-04T05:28:11;60.38;;;24.52;;
76786;SDS011;65739;51.482;5.702;2022-12-04T05:30:37;58.53;;;23.98;;
76786;SDS011;65739;51.482;5.702;2022-12-04T05:33:03;57.05;;;24.25;;
76786;SDS011;65739;51.482;5.702;2022-12-04T05:35:29;60.10;;;25.17;;
76786;SDS011;65739;51.482;5.702;2022-12-04T05:37:55;53.13;;;23.75;;
76786;SDS011;65739;51.482;5.702;2022-12-04T05:40:21;60.03;;;25.52;;
76786;SDS011;65739;51.482;5.702;2022-12-04T05:42:47;60.25;;;25.48;;
76786;SDS011;65739;51.482;5.702;2022-12-04T05:45:12;57.97;;;24.30;;
76786;SDS011;65739;51.482;5.702;2022-12-04T05:47:39;61.03;;;23.10;;
76786;SDS011;65739;51.482;5.702;2022-12-04T05:50:06;56.28;;;25.05;;
76786;SDS011;65739;51.482;5.702;2022-12-04T05:52:33;56.03;;;24.98;;
76786;SDS011;65739;51.482;5.702;2022-12-04T05:54:59;63.60;;;24.90;;
76786;SDS011;65739;51.482;5.702;2022-12-04T05:57:26;58.42;;;25.33;;
76786;SDS011;65739;51.482;5.702;2022-12-04T05:59:52;55.85;;;24.05;;
76786;SDS011;65739;51.482;5.702;2022-12-04T06:02:18;61.90;;;25.73;;
76786;SDS011;65739;51.482;5.702;2022-12-04T06:04:43;61.83;;;25.08;;
76786;SDS011;65739;51.482;5.702;2022-12-04T06:07:10;57.33;;;24.80;;
76786;SDS011;65739;51.482;5.702;2022-12-04T06:09:35;57.17;;;24.67;;
76786;SDS011;65739;51.482;5.702;2022-12-04T06:12:02;62.17;;;26.83;;
76786;SDS011;65739;51.482;5.702;2022-12-04T06:14:28;56.13;;;25.10;;
76786;SDS011;65739;51.482;5.702;2022-12-04T06:16:54;65.78;;;25.92;;
76786;SDS011;65739;51.482;5.702;2022-12-04T06:19:20;55.88;;;24.58;;
76786;SDS011;65739;51.482;5.702;2022-12-04T06:21:48;60.05;;;24.05;;
76786;SDS011;65739;51.482;5.702;2022-12-04T06:24:17;60.80;;;25.73;;
76786;SDS011;65739;51.482;5.702;2022-12-04T06:26:45;55.47;;;23.57;;
76786;SDS011;65739;51.482;5.702;2022-12-04T06:29:12;65.47;;;24.73;;
76786;SDS011;65739;51.482;5.702;2022-12-04T06:31:38;57.00;;;24.25;;
76786;SDS011;65739;51.482;5.702;2022-12-04T06:34:04;57.78;;;23.92;;
76786;SDS011;65739;51.482;5.702;2022-12-04T06:36:31;59.10;;;25.08;;
76786;SDS011;65739;51.482;5.702;2022-12-04T06:38:57;61.50;;;24.08;;
76786;SDS011;65739;51.482;5.702;2022-12-04T06:41:23;57.33;;;24.73;;
76786;SDS011;65739;51.482;5.702;2022-12-04T06:43:50;58.25;;;24.13;;
76786;SDS011;65739;51.482;5.702;2022-12-04T06:46:18;57.28;;;25.08;;
76786;SDS011;65739;51.482;5.702;2022-12-04T06:48:45;57.35;;;24.50;;
76786;SDS011;65739;51.482;5.702;2022-12-04T06:51:15;61.42;;;25.30;;
76786;SDS011;65739;51.482;5.702;2022-12-04T06:53:46;58.67;;;24.05;;
76786;SDS011;65739;51.482;5.702;2022-12-04T06:56:13;55.45;;;24.00;;
76786;SDS011;65739;51.482;5.702;2022-12-04T06:58:42;51.57;;;22.67;;
76786;SDS011;65739;51.482;5.702;2022-12-04T07:01:14;54.13;;;23.58;;
76786;SDS011;65739;51.482;5.702;2022-12-04T07:03:41;52.47;;;23.25;;
76786;SDS011;65739;51.482;5.702;2022-12-04T07:06:20;54.50;;;24.20;;
76786;SDS011;65739;51.482;5.702;2022-12-04T07:08:47;53.25;;;22.95;;
76786;SDS011;65739;51.482;5.702;2022-12-04T07:11:14;54.42;;;23.02;;
76786;SDS011;65739;51.482;5.702;2022-12-04T07:13:41;54.83;;;22.05;;
76786;SDS011;65739;51.482;5.702;2022-12-04T07:16:07;53.10;;;22.60;;
76786;SDS011;65739;51.482;5.702;2022-12-04T07:18:35;50.15;;;21.88;;
76786;SDS011;65739;51.482;5.702;2022-12-04T07:21:17;52.92;;;22.63;;
76786;SDS011;65739;51.482;5.702;2022-12-04T07:23:47;49.67;;;21.73;;
76786;SDS011;65739;51.482;5.702;2022-12-04T07:26:18;51.30;;;20.85;;
76786;SDS011;65739;51.482;5.702;2022-12-04T07:29:03;51.28;;;22.10;;
76786;SDS011;65739;51.482;5.702;2022-12-04T07:31:40;48.70;;;21.55;;
76786;SDS011;65739;51.482;5.702;2022-12-04T07:34:16;48.47;;;22.42;;
76786;SDS011;65739;51.482;5.702;2022-12-04T07:36:42;50.53;;;21.27;;
76786;SDS011;65739;51.482;5.702;2022-12-04T07:41:54;47.53;;;21.48;;
76786;SDS011;65739;51.482;5.702;2022-12-04T07:44:34;46.88;;;21.75;;
76786;SDS011;65739;51.482;5.702;2022-12-04T07:47:05;49.92;;;20.17;;
76786;SDS011;65739;51.482;5.702;2022-12-04T07:49:47;45.63;;;21.58;;
76786;SDS011;65739;51.482;5.702;2022-12-04T07:52:15;47.70;;;20.17;;
76786;SDS011;65739;51.482;5.702;2022-12-04T07:54:50;48.10;;;20.98;;
76786;SDS011;65739;51.482;5.702;2022-12-04T07:57:37;44.85;;;19.65;;
76786;SDS011;65739;51.482;5.702;2022-12-04T08:00:06;40.85;;;19.38;;
76786;SDS011;65739;51.482;5.702;2022-12-04T08:02:37;38.72;;;19.67;;
76786;SDS011;65739;51.482;5.702;2022-12-04T08:05:11;44.83;;;20.00;;
76786;SDS011;65739;51.482;5.702;2022-12-04T08:07:37;43.03;;;20.05;;
76786;SDS011;65739;51.482;5.702;2022-12-04T08:10:07;40.75;;;19.17;;
76786;SDS011;65739;51.482;5.702;2022-12-04T08:12:34;39.13;;;18.52;;
76786;SDS011;65739;51.482;5.702;2022-12-04T08:15:06;44.60;;;21.23;;
76786;SDS011;65739;51.482;5.702;2022-12-04T08:17:39;40.15;;;19.23;;
76786;SDS011;65739;51.482;5.702;2022-12-04T08:20:05;45.20;;;19.75;;
76786;SDS011;65739;51.482;5.702;2022-12-04T08:22:31;38.15;;;18.60;;
76786;SDS011;65739;51.482;5.702;2022-12-04T08:24:57;42.03;;;19.80;;
76786;SDS011;65739;51.482;5.702;2022-12-04T08:27:22;40.60;;;19.27;;
76786;SDS011;65739;51.482;5.702;2022-12-04T08:29:53;43.20;;;20.40;;
76786;SDS011;65739;51.482;5.702;2022-12-04T08:32:18;38.38;;;17.30;;
76786;SDS011;65739;51.482;5.702;2022-12-04T08:34:44;38.08;;;18.13;;
76786;SDS011;65739;51.482;5.702;2022-12-04T08:37:10;35.22;;;16.85;;
76786;SDS011;65739;51.482;5.702;2022-12-04T08:39:35;37.92;;;17.05;;
76786;SDS011;65739;51.482;5.702;2022-12-04T08:42:01;39.78;;;18.25;;
76786;SDS011;65739;51.482;5.702;2022-12-04T08:44:27;37.63;;;17.15;;
76786;SDS011;65739;51.482;5.702;2022-12-04T08:46:52;34.20;;;16.55;;
76786;SDS011;65739;51.482;5.702;2022-12-04T08:49:18;32.10;;;15.57;;
76786;SDS011;65739;51.482;5.702;2022-12-04T08:51:44;35.03;;;16.58;;
76786;SDS011;65739;51.482;5.702;2022-12-04T08:54:10;33.22;;;16.55;;
76786;SDS011;65739;51.482;5.702;2022-12-04T08:56:39;35.08;;;15.93;;
76786;SDS011;65739;51.482;5.702;2022-12-04T08:59:08;35.72;;;16.90;;
76786;SDS011;65739;51.482;5.702;2022-12-04T09:01:36;35.92;;;16.77;;
76786;SDS011;65739;51.482;5.702;2022-12-04T09:04:02;31.73;;;15.48;;
76786;SDS011;65739;51.482;5.702;2022-12-04T09:06:28;35.70;;;15.98;;
76786;SDS011;65739;51.482;5.702;2022-12-04T09:08:54;31.55;;;16.02;;
76786;SDS011;65739;51.482;5.702;2022-12-04T09:11:22;30.50;;;15.13;;
76786;SDS011;65739;51.482;5.702;2022-12-04T09:13:50;32.35;;;16.02;;
76786;SDS011;65739;51.482;5.702;2022-12-04T09:16:20;30.58;;;15.20;;
76786;SDS011;65739;51.482;5.702;2022-12-04T09:21:13;32.75;;;14.90;;
76786;SDS011;65739;51.482;5.702;2022-12-04T09:23:40;33.50;;;13.88;;
76786;SDS011;65739;51.482;5.702;2022-12-04T09:26:26;31.38;;;15.10;;
76786;SDS011;65739;51.482;5.702;2022-12-04T09:28:53;33.25;;;15.80;;
76786;SDS011;65739;51.482;5.702;2022-12-04T09:31:21;32.58;;;15.77;;
76786;SDS011;65739;51.482;5.702;2022-12-04T09:33:47;28.60;;;14.40;;
76786;SDS011;65739;51.482;5.702;2022-12-04T09:36:13;34.13;;;15.65;;
76786;SDS011;65739;51.482;5.702;2022-12-04T09:38:43;28.63;;;14.63;;
76786;SDS011;65739;51.482;5.702;2022-12-04T09:41:17;30.83;;;15.18;;
76786;SDS011;65739;51.482;5.702;2022-12-04T09:46:39;32.47;;;16.75;;
76786;SDS011;65739;51.482;5.702;2022-12-04T09:55:17;37.00;;;16.25;;
76786;SDS011;65739;51.482;5.702;2022-12-04T09:57:51;36.80;;;17.20;;
76786;SDS011;65739;51.482;5.702;2022-12-04T10:00:21;31.95;;;15.73;;
76786;SDS011;65739;51.482;5.702;2022-12-04T10:03:00;33.08;;;15.90;;
76786;SDS011;65739;51.482;5.702;2022-12-04T10:08:09;32.85;;;16.83;;
76786;SDS011;65739;51.482;5.702;2022-12-04T10:25:21;32.25;;;15.73;;
76786;SDS011;65739;51.482;5.702;2022-12-04T10:30:35;31.25;;;15.45;;
76786;SDS011;65739;51.482;5.702;2022-12-04T10:33:14;35.03;;;16.10;;
76786;SDS011;65739;51.482;5.702;2022-12-04T10:35:55;32.05;;;16.00;;
76786;SDS011;65739;51.482;5.702;2022-12-04T10:41:03;32.00;;;15.68;;
76786;SDS011;65739;51.482;5.702;2022-12-04T10:46:15;32.67;;;16.02;;
76786;SDS011;65739;51.482;5.702;2022-12-04T10:48:51;29.10;;;14.85;;
76786;SDS011;65739;51.482;5.702;2022-12-04T10:51:24;32.50;;;16.75;;
76786;SDS011;65739;51.482;5.702;2022-12-04T10:53:50;32.75;;;16.13;;
76786;SDS011;65739;51.482;5.702;2022-12-04T11:01:39;30.08;;;15.05;;
76786;SDS011;65739;51.482;5.702;2022-12-04T11:04:16;37.67;;;16.95;;
76786;SDS011;65739;51.482;5.702;2022-12-04T11:06:48;34.75;;;16.98;;
76786;SDS011;65739;51.482;5.702;2022-12-04T11:09:19;36.92;;;16.65;;
76786;SDS011;65739;51.482;5.702;2022-12-04T11:11:49;32.53;;;17.17;;
76786;SDS011;65739;51.482;5.702;2022-12-04T11:14:16;35.65;;;17.20;;
76786;SDS011;65739;51.482;5.702;2022-12-04T11:16:46;33.25;;;16.63;;
76786;SDS011;65739;51.482;5.702;2022-12-04T11:19:22;34.42;;;16.25;;
76786;SDS011;65739;51.482;5.702;2022-12-04T11:21:49;34.13;;;16.23;;
76786;SDS011;65739;51.482;5.702;2022-12-04T11:24:35;30.40;;;15.90;;
76786;SDS011;65739;51.482;5.702;2022-12-04T11:27:03;31.13;;;16.25;;
76786;SDS011;65739;51.482;5.702;2022-12-04T11:29:32;30.33;;;15.77;;
76786;SDS011;65739;51.482;5.702;2022-12-04T11:32:02;31.35;;;16.05;;
76786;SDS011;65739;51.482;5.702;2022-12-04T11:34:34;33.38;;;17.15;;
76786;SDS011;65739;51.482;5.702;2022-12-04T11:37:03;32.15;;;17.52;;
76786;SDS011;65739;51.482;5.702;2022-12-04T11:39:34;27.25;;;15.00;;
76786;SDS011;65739;51.482;5.702;2022-12-04T11:42:18;32.45;;;17.00;;
76786;SDS011;65739;51.482;5.702;2022-12-04T11:47:22;31.67;;;17.77;;
76786;SDS011;65739;51.482;5.702;2022-12-04T11:56:22;31.70;;;17.20;;
76786;SDS011;65739;51.482;5.702;2022-12-04T12:01:17;34.22;;;18.10;;
76786;SDS011;65739;51.482;5.702;2022-12-04T12:09:44;35.25;;;18.85;;
76786;SDS011;65739;51.482;5.702;2022-12-04T12:18:09;36.45;;;16.55;;
76786;SDS011;65739;51.482;5.702;2022-12-04T12:20:41;30.95;;;16.35;;
76786;SDS011;65739;51.482;5.702;2022-12-04T12:23:16;34.38;;;17.30;;
76786;SDS011;65739;51.482;5.702;2022-12-04T12:33:59;31.13;;;15.52;;
76786;SDS011;65739;51.482;5.702;2022-12-04T12:36:30;29.77;;;16.73;;
76786;SDS011;65739;51.482;5.702;2022-12-04T12:39:02;32.58;;;16.65;;
76786;SDS011;65739;51.482;5.702;2022-12-04T12:41:39;29.90;;;15.95;;
76786;SDS011;65739;51.482;5.702;2022-12-04T12:44:11;28.13;;;15.90;;
76786;SDS011;65739;51.482;5.702;2022-12-04T12:47:06;27.80;;;14.77;;
76786;SDS011;65739;51.482;5.702;2022-12-04T12:58:09;25.27;;;14.60;;
76786;SDS011;65739;51.482;5.702;2022-12-04T13:01:06;28.85;;;15.82;;
76786;SDS011;65739;51.482;5.702;2022-12-04T13:03:57;27.92;;;14.30;;
76786;SDS011;65739;51.482;5.702;2022-12-04T13:06:34;26.35;;;14.48;;
76786;SDS011;65739;51.482;5.702;2022-12-04T13:11:57;27.00;;;14.77;;
76786;SDS011;65739;51.482;5.702;2022-12-04T13:14:27;29.67;;;15.40;;
76786;SDS011;65739;51.482;5.702;2022-12-04T13:16:57;28.23;;;15.38;;
76786;SDS011;65739;51.482;5.702;2022-12-04T13:19:44;27.92;;;14.07;;
76786;SDS011;65739;51.482;5.702;2022-12-04T13:27:28;27.55;;;14.85;;
76786;SDS011;65739;51.482;5.702;2022-12-04T13:38:17;28.02;;;15.10;;
76786;SDS011;65739;51.482;5.702;2022-12-04T13:40:58;25.35;;;14.25;;
76786;SDS011;65739;51.482;5.702;2022-12-04T13:43:29;28.33;;;15.48;;
76786;SDS011;65739;51.482;5.702;2022-12-04T13:46:48;28.10;;;14.70;;
76786;SDS011;65739;51.482;5.702;2022-12-04T13:51:57;30.60;;;15.73;;
76786;SDS011;65739;51.482;5.702;2022-12-04T13:54:42;27.70;;;14.75;;
76786;SDS011;65739;51.482;5.702;2022-12-04T13:57:21;26.95;;;14.80;;
76786;SDS011;65739;51.482;5.702;2022-12-04T13:59:47;28.25;;;16.15;;
76786;SDS011;65739;51.482;5.702;2022-12-04T14:02:30;26.90;;;16.05;;
76786;SDS011;65739;51.482;5.702;2022-12-04T14:07:38;28.30;;;14.93;;
76786;SDS011;65739;51.482;5.702;2022-12-04T14:12:38;30.50;;;15.57;;
76786;SDS011;65739;51.482;5.702;2022-12-04T14:15:29;27.70;;;15.38;;
76786;SDS011;65739;51.482;5.702;2022-12-04T14:20:27;28.63;;;15.15;;
76786;SDS011;65739;51.482;5.702;2022-12-04T14:25:39;30.88;;;15.50;;
76786;SDS011;65739;51.482;5.702;2022-12-04T14:28:13;28.63;;;15.93;;
76786;SDS011;65739;51.482;5.702;2022-12-04T14:31:04;30.85;;;15.57;;
76786;SDS011;65739;51.482;5.702;2022-12-04T14:33:49;29.00;;;15.98;;
76786;SDS011;65739;51.482;5.702;2022-12-04T14:36:28;28.27;;;15.32;;
76786;SDS011;65739;51.482;5.702;2022-12-04T14:39:04;30.58;;;16.17;;
76786;SDS011;65739;51.482;5.702;2022-12-04T14:41:38;32.80;;;16.23;;
76786;SDS011;65739;51.482;5.702;2022-12-04T14:44:04;28.13;;;15.23;;
76786;SDS011;65739;51.482;5.702;2022-12-04T14:46:38;25.88;;;15.63;;
76786;SDS011;65739;51.482;5.702;2022-12-04T14:49:18;25.92;;;16.05;;
76786;SDS011;65739;51.482;5.702;2022-12-04T14:52:01;30.23;;;15.70;;
76786;SDS011;65739;51.482;5.702;2022-12-04T14:57:52;29.17;;;15.90;;
76786;SDS011;65739;51.482;5.702;2022-12-04T15:01:05;30.10;;;16.50;;
76786;SDS011;65739;51.482;5.702;2022-12-04T15:04:08;27.85;;;15.32;;
76786;SDS011;65739;51.482;5.702;2022-12-04T15:07:28;30.48;;;15.40;;
76786;SDS011;65739;51.482;5.702;2022-12-04T15:10:48;30.73;;;16.00;;
76786;SDS011;65739;51.482;5.702;2022-12-04T15:13:52;26.48;;;15.60;;
76786;SDS011;65739;51.482;5.702;2022-12-04T15:16:29;31.73;;;17.27;;
76786;SDS011;65739;51.482;5.702;2022-12-04T15:18:56;31.02;;;16.35;;
76786;SDS011;65739;51.482;5.702;2022-12-04T15:21:29;29.50;;;16.25;;
76786;SDS011;65739;51.482;5.702;2022-12-04T15:24:06;31.38;;;16.25;;
76786;SDS011;65739;51.482;5.702;2022-12-04T15:26:33;26.38;;;15.55;;
76786;SDS011;65739;51.482;5.702;2022-12-04T15:29:00;31.60;;;15.75;;
76786;SDS011;65739;51.482;5.702;2022-12-04T15:31:51;30.27;;;15.82;;
76786;SDS011;65739;51.482;5.702;2022-12-04T15:34:21;27.80;;;15.13;;
76786;SDS011;65739;51.482;5.702;2022-12-04T15:37:04;30.27;;;15.93;;
76786;SDS011;65739;51.482;5.702;2022-12-04T15:44:53;29.93;;;15.40;;
76786;SDS011;65739;51.482;5.702;2022-12-04T15:47:28;35.50;;;16.67;;
76786;SDS011;65739;51.482;5.702;2022-12-04T15:50:06;29.48;;;16.25;;
76786;SDS011;65739;51.482;5.702;2022-12-04T15:55:37;29.63;;;15.55;;
76786;SDS011;65739;51.482;5.702;2022-12-04T15:58:47;29.50;;;15.38;;
76786;SDS011;65739;51.482;5.702;2022-12-04T16:06:29;27.00;;;15.20;;
76786;SDS011;65739;51.482;5.702;2022-12-04T16:09:16;28.00;;;14.95;;
76786;SDS011;65739;51.482;5.702;2022-12-04T16:11:55;30.88;;;16.02;;
76786;SDS011;65739;51.482;5.702;2022-12-04T16:14:26;27.58;;;14.63;;
76786;SDS011;65739;51.482;5.702;2022-12-04T16:16:53;28.80;;;14.70;;
76786;SDS011;65739;51.482;5.702;2022-12-04T16:19:28;28.38;;;15.20;;
76786;SDS011;65739;51.482;5.702;2022-12-04T16:22:04;29.33;;;15.15;;
76786;SDS011;65739;51.482;5.702;2022-12-04T16:24:37;29.08;;;14.60;;
76786;SDS011;65739;51.482;5.702;2022-12-04T16:27:05;29.55;;;14.98;;
76786;SDS011;65739;51.482;5.702;2022-12-04T16:29:36;27.10;;;14.73;;
76786;SDS011;65739;51.482;5.702;2022-12-04T16:32:02;29.52;;;14.85;;
76786;SDS011;65739;51.482;5.702;2022-12-04T16:34:28;28.75;;;15.60;;
76786;SDS011;65739;51.482;5.702;2022-12-04T16:36:57;29.08;;;14.18;;
76786;SDS011;65739;51.482;5.702;2022-12-04T16:39:23;25.73;;;13.80;;
76786;SDS011;65739;51.482;5.702;2022-12-04T16:41:49;29.83;;;15.20;;
76786;SDS011;65739;51.482;5.702;2022-12-04T16:44:15;24.35;;;13.73;;
76786;SDS011;65739;51.482;5.702;2022-12-04T16:46:41;27.90;;;13.88;;
76786;SDS011;65739;51.482;5.702;2022-12-04T16:49:09;28.08;;;14.82;;
76786;SDS011;65739;51.482;5.702;2022-12-04T16:51:36;26.50;;;13.52;;
76786;SDS011;65739;51.482;5.702;2022-12-04T16:54:07;23.42;;;14.32;;
76786;SDS011;65739;51.482;5.702;2022-12-04T16:56:34;23.35;;;13.82;;
76786;SDS011;65739;51.482;5.702;2022-12-04T16:58:59;28.27;;;14.38;;
76786;SDS011;65739;51.482;5.702;2022-12-04T17:01:26;27.90;;;13.88;;
76786;SDS011;65739;51.482;5.702;2022-12-04T17:03:57;26.55;;;14.75;;
76786;SDS011;65739;51.482;5.702;2022-12-04T17:06:23;28.65;;;14.13;;
76786;SDS011;65739;51.482;5.702;2022-12-04T17:08:49;25.83;;;14.63;;
76786;SDS011;65739;51.482;5.702;2022-12-04T17:11:15;26.52;;;14.55;;
76786;SDS011;65739;51.482;5.702;2022-12-04T17:13:42;26.52;;;13.70;;
76786;SDS011;65739;51.482;5.702;2022-12-04T17:16:08;29.80;;;15.13;;
76786;SDS011;65739;51.482;5.702;2022-12-04T17:18:35;28.58;;;14.60;;
76786;SDS011;65739;51.482;5.702;2022-12-04T17:21:05;26.08;;;13.93;;
76786;SDS011;65739;51.482;5.702;2022-12-04T17:26:05;23.85;;;13.60;;